createdAt,value
2023-03-19T00:00:45.328Z,2.55
2023-03-19T00:03:12.159Z,2.88
2023-03-19T00:05:39.170Z,2.40
2023-03-19T00:08:06.531Z,1.90
2023-03-19T00:10:33.993Z,2.88
2023-03-19T00:13:01.026Z,2.80
2023-03-19T00:15:28.169Z,2.50
2023-03-19T00:17:56.656Z,2.33
2023-03-19T00:20:24.510Z,3.05
2023-03-19T00:22:51.520Z,3.47
2023-03-19T00:25:18.565Z,3.55
2023-03-19T00:27:45.502Z,3.75
2023-03-19T00:30:13.077Z,3.10
2023-03-19T00:32:40.684Z,2.60
2023-03-19T00:35:08.775Z,2.60
2023-03-19T00:37:36.674Z,2.33
2023-03-19T00:40:04.561Z,3.35
2023-03-19T00:42:32.500Z,2.40
2023-03-19T00:45:06.746Z,2.13
2023-03-19T00:47:33.912Z,3.83
2023-03-19T00:50:01.009Z,3.25
2023-03-19T00:52:27.862Z,3.15
2023-03-19T00:54:54.851Z,4.38
2023-03-19T00:57:22.320Z,3.17
2023-03-19T00:59:49.348Z,2.90
2023-03-19T01:02:16.183Z,2.85
2023-03-19T01:04:43.826Z,2.58
2023-03-19T01:07:11.421Z,3.08
2023-03-19T01:09:38.559Z,2.90
2023-03-19T01:12:05.945Z,2.88
2023-03-19T01:14:33.032Z,3.40
2023-03-19T01:17:00.153Z,3.67
2023-03-19T01:19:27.492Z,3.70
2023-03-19T01:21:54.641Z,3.75
2023-03-19T01:24:22.118Z,4.18
2023-03-19T01:26:49.211Z,3.78
2023-03-19T01:29:16.373Z,3.33
2023-03-19T01:31:43.198Z,3.10
2023-03-19T01:34:10.326Z,2.80
2023-03-19T01:36:37.488Z,3.45
2023-03-19T01:39:04.663Z,2.80
2023-03-19T01:41:32.115Z,2.95
2023-03-19T01:43:59.323Z,3.10
2023-03-19T01:46:32.387Z,2.88
2023-03-19T01:49:02.770Z,2.70
2023-03-19T01:51:35.642Z,2.70
2023-03-19T01:54:14.502Z,2.80
2023-03-19T01:56:43.394Z,2.80
2023-03-19T01:59:30.086Z,2.80
2023-03-19T02:02:02.285Z,2.67
2023-03-19T02:04:31.777Z,2.63
2023-03-19T02:07:00.809Z,2.47
2023-03-19T02:09:29.392Z,2.65
2023-03-19T02:11:57.235Z,2.80
2023-03-19T02:14:24.352Z,3.00
2023-03-19T02:16:51.620Z,2.45
2023-03-19T02:19:28.178Z,2.88
2023-03-19T02:21:57.105Z,2.53
2023-03-19T02:24:32.785Z,2.40
2023-03-19T02:27:00.000Z,2.38
2023-03-19T02:29:27.162Z,2.40
2023-03-19T02:31:54.088Z,2.90
2023-03-19T02:34:21.428Z,2.33
2023-03-19T02:36:52.110Z,2.08
2023-03-19T02:39:42.828Z,2.42
2023-03-19T02:42:11.572Z,2.20
2023-03-19T02:44:38.555Z,1.90
2023-03-19T02:47:05.970Z,2.28
2023-03-19T02:49:33.199Z,2.03
2023-03-19T02:52:00.794Z,2.10
2023-03-19T02:54:27.767Z,1.77
2023-03-19T02:56:55.051Z,1.70
2023-03-19T02:59:22.093Z,2.05
2023-03-19T03:01:49.406Z,1.58
2023-03-19T03:04:17.165Z,1.80
2023-03-19T03:06:44.956Z,2.00
2023-03-19T03:09:13.836Z,1.90
2023-03-19T03:11:44.002Z,1.83
2023-03-19T03:14:12.032Z,1.90
2023-03-19T03:16:39.010Z,1.75
2023-03-19T03:19:06.689Z,1.52
2023-03-19T03:21:35.590Z,1.60
2023-03-19T03:24:03.012Z,1.90
2023-03-19T03:26:29.977Z,1.70
2023-03-19T03:28:56.866Z,1.40
2023-03-19T03:31:23.839Z,1.70
2023-03-19T03:33:50.961Z,1.63
2023-03-19T03:36:18.111Z,1.75
2023-03-19T03:38:46.128Z,1.75
2023-03-19T03:41:13.069Z,1.45
2023-03-19T03:43:41.194Z,1.40
2023-03-19T03:46:08.809Z,1.50
2023-03-19T03:48:36.133Z,1.40
2023-03-19T03:51:04.521Z,1.70
2023-03-19T03:53:31.908Z,1.10
2023-03-19T03:55:59.439Z,1.75
2023-03-19T03:58:26.807Z,1.50
2023-03-19T04:00:54.726Z,1.30
2023-03-19T04:03:22.553Z,1.33
2023-03-19T04:05:49.884Z,1.15
2023-03-19T04:08:17.264Z,1.45
2023-03-19T04:10:44.900Z,1.25
2023-03-19T04:13:13.207Z,1.48
2023-03-19T04:15:45.798Z,1.30
2023-03-19T04:18:12.960Z,1.48
2023-03-19T04:20:41.364Z,1.50
2023-03-19T04:23:08.337Z,1.20
2023-03-19T04:25:35.492Z,1.40
2023-03-19T04:28:02.386Z,1.40
2023-03-19T04:30:29.328Z,1.40
2023-03-19T04:32:57.192Z,1.75
2023-03-19T04:35:24.487Z,1.50
2023-03-19T04:37:51.827Z,1.50
2023-03-19T04:40:19.413Z,1.80
2023-03-19T04:42:46.388Z,1.38
2023-03-19T04:45:13.841Z,1.10
2023-03-19T04:47:40.869Z,1.25
2023-03-19T04:50:09.470Z,1.27
2023-03-19T04:52:37.443Z,1.23
2023-03-19T04:55:05.998Z,1.10
2023-03-19T04:57:33.220Z,1.40
2023-03-19T05:00:00.242Z,1.38
2023-03-19T05:02:27.754Z,1.13
2023-03-19T05:04:54.610Z,1.15
2023-03-19T05:07:21.591Z,1.20
2023-03-19T05:09:48.529Z,1.30
2023-03-19T05:12:15.321Z,1.25
2023-03-19T05:14:42.523Z,1.50
2023-03-19T05:17:11.495Z,1.50
2023-03-19T05:19:39.564Z,1.20
2023-03-19T05:22:06.500Z,1.92
2023-03-19T05:24:33.681Z,1.17
2023-03-19T05:27:00.575Z,1.30
2023-03-19T05:29:28.245Z,1.50
2023-03-19T05:31:55.091Z,1.27
2023-03-19T05:34:22.342Z,1.20
2023-03-19T05:36:50.136Z,1.13
2023-03-19T05:39:17.327Z,1.15
2023-03-19T05:41:44.176Z,1.33
2023-03-19T05:44:11.335Z,1.42
2023-03-19T05:46:38.326Z,1.58
2023-03-19T05:49:06.737Z,1.58
2023-03-19T05:51:33.941Z,1.38
2023-03-19T05:54:00.919Z,1.20
2023-03-19T05:56:27.908Z,1.20
2023-03-19T05:58:54.809Z,1.30
2023-03-19T06:01:22.724Z,1.42
2023-03-19T06:03:49.705Z,1.25
2023-03-19T06:06:16.812Z,1.42
2023-03-19T06:08:43.868Z,1.40
2023-03-19T06:11:12.471Z,1.42
2023-03-19T06:13:39.722Z,1.30
2023-03-19T06:16:07.159Z,1.23
2023-03-19T06:18:34.134Z,1.20
2023-03-19T06:21:02.317Z,1.40
2023-03-19T06:23:29.177Z,1.20
2023-03-19T06:25:56.302Z,0.95
2023-03-19T06:28:23.550Z,1.38
2023-03-19T06:30:51.238Z,1.65
2023-03-19T06:33:18.053Z,1.23
2023-03-19T06:35:44.940Z,1.30
2023-03-19T06:38:12.547Z,2.13
2023-03-19T06:40:39.725Z,2.10
2023-03-19T06:43:07.257Z,2.00
2023-03-19T06:45:34.124Z,1.58
2023-03-19T06:48:00.999Z,1.45
2023-03-19T06:50:28.286Z,1.48
2023-03-19T06:52:55.214Z,1.20
2023-03-19T06:55:22.005Z,1.48
2023-03-19T06:57:51.161Z,1.10
2023-03-19T07:00:18.740Z,1.40
2023-03-19T07:02:45.776Z,1.50
2023-03-19T07:05:12.562Z,1.02
2023-03-19T07:07:39.575Z,1.60
2023-03-19T07:10:07.607Z,1.52
2023-03-19T07:12:34.961Z,1.40
2023-03-19T07:15:02.339Z,1.15
2023-03-19T07:17:29.259Z,1.27
2023-03-19T07:19:56.262Z,1.80
2023-03-19T07:22:23.351Z,1.60
2023-03-19T07:24:51.613Z,1.80
2023-03-19T07:27:18.498Z,1.60
2023-03-19T07:29:45.335Z,1.08
2023-03-19T07:32:13.008Z,1.33
2023-03-19T07:34:39.943Z,1.15
2023-03-19T07:37:06.838Z,1.20
2023-03-19T07:39:34.208Z,1.20
2023-03-19T07:42:02.139Z,1.38
2023-03-19T07:44:28.937Z,1.35
2023-03-19T07:46:55.781Z,1.33
2023-03-19T07:49:23.637Z,1.50
2023-03-19T07:51:50.526Z,1.20
2023-03-19T07:54:17.703Z,1.27
2023-03-19T07:56:44.640Z,1.10
2023-03-19T07:59:11.686Z,1.40
2023-03-19T08:01:38.890Z,1.30
2023-03-19T08:04:06.101Z,1.40
2023-03-19T08:06:32.961Z,1.52
2023-03-19T08:08:59.746Z,1.63
2023-03-19T08:11:26.950Z,1.23
2023-03-19T08:13:54.083Z,1.20
2023-03-19T08:16:21.451Z,1.30
2023-03-19T08:18:52.647Z,1.35
2023-03-19T08:21:19.552Z,1.30
2023-03-19T08:23:46.792Z,1.20
2023-03-19T08:26:15.039Z,1.52
2023-03-19T08:28:42.075Z,1.58
2023-03-19T08:31:14.375Z,1.90
2023-03-19T08:33:41.903Z,1.77
2023-03-19T08:36:12.238Z,1.58
2023-03-19T08:38:39.592Z,1.50
2023-03-19T08:41:07.470Z,2.08
2023-03-19T08:43:36.759Z,1.52
2023-03-19T08:46:05.112Z,1.60
2023-03-19T08:48:32.221Z,2.10
2023-03-19T08:51:02.589Z,1.80
2023-03-19T08:53:30.587Z,2.05
2023-03-19T08:56:00.845Z,1.73
2023-03-19T08:58:28.716Z,2.22
2023-03-19T09:01:12.205Z,2.05
2023-03-19T09:03:41.130Z,2.67
2023-03-19T09:06:11.629Z,2.17
2023-03-19T09:08:38.860Z,2.35
2023-03-19T09:11:06.896Z,2.13
2023-03-19T09:13:34.042Z,2.25
2023-03-19T09:16:01.549Z,2.22
2023-03-19T09:18:28.939Z,2.83
2023-03-19T09:20:55.812Z,2.22
2023-03-19T09:23:23.311Z,2.58
2023-03-19T09:25:51.502Z,2.22
2023-03-19T09:28:20.948Z,2.38
2023-03-19T09:30:49.651Z,3.30
2023-03-19T09:33:18.411Z,2.15
2023-03-19T09:35:50.481Z,2.70
2023-03-19T09:38:17.462Z,2.27
2023-03-19T09:40:48.584Z,2.45
2023-03-19T09:43:32.155Z,2.42
2023-03-19T09:46:02.253Z,2.40
2023-03-19T09:48:52.933Z,2.75
2023-03-19T09:51:29.006Z,2.30
2023-03-19T09:54:06.787Z,2.40
2023-03-19T09:56:34.312Z,2.25
2023-03-19T09:59:03.329Z,2.28
2023-03-19T10:01:35.700Z,2.20
2023-03-19T10:04:30.167Z,2.42
2023-03-19T10:07:25.622Z,2.90
2023-03-19T10:10:04.360Z,2.30
2023-03-19T10:12:37.453Z,3.10
2023-03-19T10:15:30.120Z,2.90
2023-03-19T10:18:21.044Z,2.97
2023-03-19T10:21:16.310Z,3.40
2023-03-19T10:23:53.868Z,3.15
2023-03-19T10:26:26.554Z,2.97
2023-03-19T10:29:14.382Z,2.70
2023-03-19T10:31:50.177Z,2.85
2023-03-19T10:34:33.055Z,3.17
2023-03-19T10:37:13.745Z,3.28
2023-03-19T10:39:43.463Z,2.60
2023-03-19T10:42:41.396Z,2.10
2023-03-19T10:45:29.595Z,2.22
2023-03-19T10:47:58.502Z,2.40
2023-03-19T10:51:13.888Z,2.72
2023-03-19T10:53:41.602Z,2.40
2023-03-19T10:56:19.214Z,2.20
2023-03-19T10:59:02.416Z,2.40
2023-03-19T11:04:22.098Z,2.70
2023-03-19T11:06:54.752Z,2.40
2023-03-19T11:09:58.037Z,2.63
2023-03-19T11:12:30.394Z,2.80
2023-03-19T11:14:59.676Z,2.55
2023-03-19T11:17:40.539Z,2.42
2023-03-19T11:20:37.744Z,2.70
2023-03-19T11:23:16.097Z,2.58
2023-03-19T11:25:50.845Z,2.65
2023-03-19T11:28:23.109Z,2.10
2023-03-19T11:31:01.223Z,2.15
2023-03-19T11:33:30.685Z,2.30
2023-03-19T11:36:23.939Z,2.13
2023-03-19T11:39:16.495Z,2.28
2023-03-19T11:42:08.897Z,2.63
2023-03-19T11:44:59.041Z,2.40
2023-03-19T11:47:30.807Z,2.80
2023-03-19T11:50:18.210Z,2.13
2023-03-19T11:53:00.500Z,2.17
2023-03-19T11:55:55.289Z,2.38
2023-03-19T11:58:40.965Z,1.50
2023-03-19T12:01:29.521Z,1.70
2023-03-19T12:04:20.185Z,1.60
2023-03-19T12:06:55.939Z,1.60
2023-03-19T12:09:38.654Z,1.70
2023-03-19T12:12:38.264Z,1.48
2023-03-19T12:15:13.960Z,1.88
2023-03-19T12:18:06.045Z,2.00
2023-03-19T12:21:01.014Z,1.67
2023-03-19T12:23:28.223Z,1.90
2023-03-19T12:26:04.959Z,1.80
2023-03-19T12:28:47.132Z,2.00
2023-03-19T12:31:31.871Z,2.25
2023-03-19T12:34:17.938Z,2.00
2023-03-19T12:37:11.170Z,1.70
2023-03-19T12:39:43.977Z,1.83
2023-03-19T12:42:14.533Z,1.63
2023-03-19T12:44:46.669Z,1.85
2023-03-19T12:47:31.768Z,1.27
2023-03-19T12:50:06.898Z,1.70
2023-03-19T12:52:34.108Z,1.30
2023-03-19T12:55:14.489Z,1.23
2023-03-19T12:58:03.911Z,1.63
2023-03-19T13:00:41.123Z,1.30
2023-03-19T13:03:25.378Z,1.38
2023-03-19T13:06:37.378Z,1.67
2023-03-19T13:09:24.236Z,1.65
2023-03-19T13:12:10.824Z,1.60
2023-03-19T13:14:52.683Z,1.40
2023-03-19T13:17:21.412Z,1.20
2023-03-19T13:19:56.346Z,1.02
2023-03-19T13:22:33.182Z,1.70
2023-03-19T13:25:01.658Z,1.30
2023-03-19T13:27:34.414Z,1.00
2023-03-19T13:30:10.581Z,0.90
2023-03-19T13:32:49.319Z,1.15
2023-03-19T13:35:28.497Z,1.00
2023-03-19T13:38:00.951Z,1.50
2023-03-19T13:40:59.686Z,1.67
2023-03-19T13:43:28.601Z,1.80
2023-03-19T13:46:12.319Z,1.90
2023-03-19T13:48:49.899Z,1.65
2023-03-19T13:51:19.711Z,1.65
2023-03-19T13:54:05.217Z,1.55
2023-03-19T13:56:53.335Z,1.55
2023-03-19T13:59:28.082Z,2.42
2023-03-19T14:01:55.831Z,1.75
2023-03-19T14:04:38.202Z,1.73
2023-03-19T14:07:11.354Z,1.90
2023-03-19T14:10:12.684Z,1.30
2023-03-19T14:12:42.811Z,1.40
2023-03-19T14:15:10.349Z,0.98
2023-03-19T14:17:42.556Z,1.23
2023-03-19T14:20:16.693Z,1.08
2023-03-19T14:23:09.257Z,1.45
2023-03-19T14:25:54.108Z,1.08
2023-03-19T14:28:28.396Z,0.90
2023-03-19T14:30:57.115Z,1.33
2023-03-19T14:33:32.693Z,1.00
2023-03-19T14:36:04.660Z,1.05
2023-03-19T14:38:40.839Z,0.88
2023-03-19T14:41:12.526Z,0.60
2023-03-19T14:44:04.710Z,0.60
2023-03-19T14:46:31.850Z,0.70
2023-03-19T14:49:29.785Z,0.50
2023-03-19T14:52:17.993Z,0.40
2023-03-19T14:55:12.268Z,0.50
2023-03-19T14:57:39.272Z,0.40
2023-03-19T15:00:13.523Z,0.50
2023-03-19T15:02:52.628Z,0.30
2023-03-19T15:05:30.001Z,0.40
2023-03-19T15:08:06.963Z,0.40
2023-03-19T15:11:02.906Z,1.30
2023-03-19T15:13:51.418Z,0.40
2023-03-19T15:16:46.588Z,0.40
2023-03-19T15:19:15.789Z,0.40
2023-03-19T15:21:43.254Z,0.30
2023-03-19T15:24:17.740Z,0.30
2023-03-19T15:26:46.072Z,0.40
2023-03-19T15:29:13.680Z,0.22
2023-03-19T15:31:54.776Z,0.43
2023-03-19T15:34:29.822Z,0.38
2023-03-19T15:37:08.746Z,0.40
2023-03-19T15:39:45.297Z,0.88
2023-03-19T15:42:14.648Z,0.30
2023-03-19T15:44:49.641Z,0.35
2023-03-19T15:47:22.104Z,0.30
2023-03-19T15:50:07.238Z,0.40
2023-03-19T15:52:38.971Z,0.28
2023-03-19T15:55:07.334Z,0.43
2023-03-19T15:57:39.906Z,0.82
2023-03-19T16:00:13.415Z,0.80
2023-03-19T16:02:42.353Z,0.90
2023-03-19T16:05:27.520Z,1.10
2023-03-19T16:08:03.167Z,0.60
2023-03-19T16:10:42.416Z,0.63
2023-03-19T16:13:27.478Z,1.02
2023-03-19T16:16:02.787Z,0.50
2023-03-19T16:18:41.707Z,0.70
2023-03-19T16:21:15.556Z,0.77
2023-03-19T16:24:19.129Z,1.10
2023-03-19T16:26:48.036Z,1.20
2023-03-19T16:29:19.748Z,0.73
2023-03-19T16:31:52.297Z,0.90
2023-03-19T16:34:32.214Z,1.00
2023-03-19T16:37:00.429Z,1.88
2023-03-19T16:39:36.693Z,2.13
2023-03-19T16:42:27.651Z,1.75
2023-03-19T16:44:54.927Z,1.60
2023-03-19T16:47:22.691Z,1.70
2023-03-19T16:49:49.596Z,1.42
2023-03-19T16:52:22.741Z,2.13
2023-03-19T16:54:50.354Z,5.93
2023-03-19T16:57:17.556Z,5.85
2023-03-19T16:59:46.815Z,4.10
2023-03-19T17:02:19.983Z,2.60
2023-03-19T17:04:47.358Z,2.90
2023-03-19T17:07:14.544Z,3.15
2023-03-19T17:09:41.389Z,3.20
2023-03-19T17:12:14.894Z,3.20
2023-03-19T17:14:42.478Z,3.35
2023-03-19T17:17:19.557Z,3.40
2023-03-19T17:19:48.264Z,2.80
2023-03-19T17:22:15.229Z,2.70
2023-03-19T17:24:42.840Z,3.05
2023-03-19T17:27:10.765Z,3.17
2023-03-19T17:29:37.788Z,2.92
2023-03-19T17:32:07.170Z,3.83
2023-03-19T17:34:35.846Z,3.53
2023-03-19T17:37:11.491Z,3.45
2023-03-19T17:39:38.342Z,3.38
2023-03-19T17:42:19.304Z,3.70
2023-03-19T17:44:46.891Z,3.70
2023-03-19T17:47:14.003Z,3.40
2023-03-19T17:49:42.288Z,3.83
2023-03-19T17:52:17.820Z,4.47
2023-03-19T17:54:45.419Z,4.00
2023-03-19T17:57:15.998Z,4.45
2023-03-19T17:59:42.891Z,4.22
2023-03-19T18:02:36.891Z,3.78
2023-03-19T18:05:04.234Z,4.50
2023-03-19T18:07:31.401Z,4.97
2023-03-19T18:09:58.220Z,4.80
2023-03-19T18:12:25.000Z,4.97
2023-03-19T18:14:51.939Z,4.78
2023-03-19T18:17:20.350Z,5.75
2023-03-19T18:19:50.790Z,7.65
2023-03-19T18:22:21.383Z,5.85
2023-03-19T18:24:48.347Z,5.80
2023-03-19T18:27:16.109Z,5.63
2023-03-19T18:29:44.198Z,5.20
2023-03-19T18:32:19.530Z,6.28
2023-03-19T18:34:46.784Z,5.35
2023-03-19T18:37:18.158Z,6.10
2023-03-19T18:39:45.372Z,7.18
2023-03-19T18:42:13.809Z,6.45
2023-03-19T18:44:40.709Z,6.20
2023-03-19T18:47:13.799Z,6.45
2023-03-19T18:49:41.618Z,5.70
2023-03-19T18:52:18.978Z,7.60
2023-03-19T18:54:46.568Z,10.20
2023-03-19T18:57:14.733Z,9.52
2023-03-19T18:59:41.875Z,8.20
2023-03-19T19:02:44.001Z,8.75
2023-03-19T19:05:24.776Z,9.82
2023-03-19T19:07:52.203Z,10.15
2023-03-19T19:10:19.363Z,9.65
2023-03-19T19:12:52.477Z,10.48
2023-03-19T19:15:33.026Z,9.23
2023-03-19T19:18:00.573Z,10.23
2023-03-19T19:20:29.835Z,10.40
2023-03-19T19:22:57.012Z,10.38
2023-03-19T19:25:29.278Z,11.20
2023-03-19T19:28:02.241Z,12.13
2023-03-19T19:32:57.399Z,11.68
2023-03-19T19:35:28.128Z,11.20
2023-03-19T19:37:55.554Z,12.82
2023-03-19T19:40:28.654Z,12.13
2023-03-19T19:45:28.254Z,11.65
2023-03-19T19:47:56.723Z,12.00
2023-03-19T19:50:25.414Z,11.95
2023-03-19T19:52:54.296Z,12.40
2023-03-19T19:55:22.451Z,12.07
2023-03-19T19:57:49.904Z,11.60
2023-03-19T20:00:27.476Z,12.43
2023-03-19T20:02:55.222Z,12.88
2023-03-19T20:05:25.514Z,12.73
2023-03-19T20:07:55.013Z,11.13
2023-03-19T20:10:25.871Z,11.80
2023-03-19T20:12:55.875Z,10.70
2023-03-19T20:15:29.573Z,10.88
2023-03-19T20:17:57.021Z,10.82
2023-03-19T20:20:28.171Z,11.52
2023-03-19T20:22:56.809Z,11.45
2023-03-19T20:25:29.147Z,11.27
2023-03-19T20:27:59.401Z,11.02
2023-03-19T20:30:35.424Z,11.60
2023-03-19T20:33:02.655Z,10.93
2023-03-19T20:35:32.501Z,11.57
2023-03-19T20:38:00.861Z,11.25
2023-03-19T20:40:51.558Z,11.77
2023-03-19T20:43:35.678Z,12.90
2023-03-19T20:46:05.303Z,12.27
2023-03-19T20:48:33.291Z,11.20
2023-03-19T20:51:02.317Z,11.77
2023-03-19T20:53:29.444Z,11.85
2023-03-19T20:55:57.313Z,14.52
2023-03-19T20:58:37.002Z,14.02
2023-03-19T21:01:03.888Z,13.63
2023-03-19T21:03:32.203Z,15.05
2023-03-19T21:06:06.110Z,18.48
2023-03-19T21:08:44.430Z,14.52
2023-03-19T21:11:37.165Z,12.23
2023-03-19T21:14:05.132Z,11.38
2023-03-19T21:16:35.030Z,10.48
2023-03-19T21:19:02.936Z,10.48
2023-03-19T21:21:36.233Z,10.52
2023-03-19T21:24:14.255Z,11.10
2023-03-19T21:26:42.774Z,12.18
2023-03-19T21:29:41.335Z,14.68
2023-03-19T21:32:16.862Z,17.05
2023-03-19T21:34:45.610Z,20.95
2023-03-19T21:37:12.911Z,27.23
2023-03-19T21:39:41.103Z,30.42
2023-03-19T21:42:09.773Z,33.17
2023-03-19T21:44:37.332Z,32.78
2023-03-19T21:47:04.532Z,32.30
2023-03-19T21:49:31.565Z,33.40
2023-03-19T21:51:58.584Z,33.53
2023-03-19T21:54:25.465Z,36.42
2023-03-19T21:56:52.636Z,33.75
2023-03-19T21:59:31.791Z,34.15
2023-03-19T22:01:59.386Z,35.30
2023-03-19T22:04:26.518Z,34.58
2023-03-19T22:06:53.668Z,35.35
2023-03-19T22:09:20.600Z,36.28
2023-03-19T22:11:47.409Z,33.58
2023-03-19T22:14:24.791Z,33.63
2023-03-19T22:16:54.629Z,35.45
2023-03-19T22:19:22.161Z,35.85
2023-03-19T22:21:49.607Z,36.40
2023-03-19T22:24:18.046Z,36.08
2023-03-19T22:26:49.656Z,36.13
2023-03-19T22:29:20.956Z,37.58
2023-03-19T22:31:52.453Z,36.67
2023-03-19T22:34:22.574Z,37.65
2023-03-19T22:36:50.249Z,36.70
2023-03-19T22:39:17.718Z,38.83
2023-03-19T22:41:47.856Z,37.70
2023-03-19T22:44:28.105Z,36.47
2023-03-19T22:46:57.287Z,35.85
2023-03-19T22:49:25.146Z,35.78
2023-03-19T22:51:52.062Z,36.13
2023-03-19T22:54:18.914Z,35.15
2023-03-19T22:56:45.877Z,35.72
2023-03-19T22:59:14.117Z,33.45
2023-03-19T23:01:49.215Z,32.60
2023-03-19T23:04:21.109Z,32.90
2023-03-19T23:06:48.830Z,34.00
2023-03-19T23:09:25.076Z,31.88
2023-03-19T23:11:53.736Z,35.50
2023-03-19T23:14:29.598Z,34.22
2023-03-19T23:17:02.038Z,34.38
2023-03-19T23:19:36.069Z,33.55
2023-03-19T23:22:05.184Z,33.75
2023-03-19T23:24:32.502Z,34.13
2023-03-19T23:27:01.582Z,34.95
2023-03-19T23:29:34.358Z,34.97
2023-03-19T23:32:01.467Z,35.65
2023-03-19T23:34:28.818Z,36.97
2023-03-19T23:36:57.308Z,34.53
2023-03-19T23:39:24.613Z,36.45
2023-03-19T23:41:56.723Z,35.92
2023-03-19T23:44:23.639Z,35.97
2023-03-19T23:46:52.544Z,35.70
2023-03-19T23:49:29.770Z,35.13
2023-03-19T23:51:57.488Z,35.25
2023-03-19T23:54:50.923Z,36.15
2023-03-19T23:59:48.321Z,33.80
